createdAt,value
2022-11-13T00:00:12.276Z,77398.19
2022-11-13T00:02:39.774Z,77410.53
2022-11-13T00:05:07.215Z,77398.19
2022-11-13T00:07:34.777Z,77394.09
2022-11-13T00:10:02.517Z,77389.97
2022-11-13T00:12:29.683Z,77373.53
2022-11-13T00:14:56.701Z,77385.84
2022-11-13T00:17:23.759Z,77387.91
2022-11-13T00:19:51.715Z,77385.84
2022-11-13T00:22:18.777Z,77371.47
2022-11-13T00:24:47.005Z,77365.28
2022-11-13T00:27:14.353Z,77361.19
2022-11-13T00:29:41.376Z,77365.28
2022-11-13T00:32:08.862Z,77357.06
2022-11-13T00:34:51.264Z,77346.78
2022-11-13T00:37:18.745Z,77332.41
2022-11-13T00:39:46.168Z,77322.13
2022-11-13T00:42:13.282Z,77320.06
2022-11-13T00:44:40.336Z,77315.94
2022-11-13T00:47:08.003Z,77313.91
2022-11-13T00:49:36.173Z,77311.84
2022-11-13T00:52:03.623Z,77307.72
2022-11-13T00:54:31.087Z,77305.66
2022-11-13T00:56:58.117Z,77293.34
2022-11-13T00:59:25.270Z,77291.28
2022-11-13T01:01:52.342Z,77285.09
2022-11-13T01:04:19.514Z,77289.22
2022-11-13T01:06:48.696Z,77291.28
2022-11-13T01:09:15.822Z,77287.16
2022-11-13T01:11:44.199Z,77276.88
2022-11-13T01:14:11.523Z,77291.28
2022-11-13T01:16:38.715Z,77291.28
2022-11-13T01:19:05.767Z,77283.06
2022-11-13T01:21:33.400Z,77285.09
2022-11-13T01:24:04.789Z,77285.09
2022-11-13T01:26:33.801Z,77287.16
2022-11-13T01:29:00.856Z,77287.16
2022-11-13T01:31:33.046Z,77278.94
2022-11-13T01:34:00.274Z,77281.00
2022-11-13T01:36:27.701Z,77278.94
2022-11-13T01:38:56.121Z,77278.94
2022-11-13T01:41:24.180Z,77283.06
2022-11-13T01:43:52.306Z,77278.94
2022-11-13T01:46:19.624Z,77278.94
2022-11-13T01:49:12.726Z,77274.81
2022-11-13T01:51:40.679Z,77262.50
2022-11-13T01:54:14.540Z,77270.72
2022-11-13T01:56:44.205Z,77270.72
2022-11-13T01:59:15.445Z,77266.59
2022-11-13T02:01:42.924Z,77258.38
2022-11-13T02:04:11.555Z,77250.16
2022-11-13T02:06:48.041Z,77241.94
2022-11-13T02:09:21.457Z,77225.47
2022-11-13T02:11:48.489Z,77229.59
2022-11-13T02:14:16.012Z,77221.38
2022-11-13T02:16:45.728Z,77213.16
2022-11-13T02:19:14.389Z,77202.88
2022-11-13T02:21:58.004Z,77198.75
2022-11-13T02:24:25.420Z,77213.16
2022-11-13T02:26:52.495Z,77202.88
2022-11-13T02:29:19.509Z,77209.03
2022-11-13T02:31:46.645Z,77196.69
2022-11-13T02:34:13.908Z,77200.81
2022-11-13T02:36:44.546Z,77200.81
2022-11-13T02:39:12.803Z,77186.41
2022-11-13T02:41:40.042Z,77180.25
2022-11-13T02:44:07.243Z,77192.59
2022-11-13T02:46:34.299Z,77192.59
2022-11-13T02:49:01.373Z,77188.47
2022-11-13T02:51:28.999Z,77184.34
2022-11-13T02:53:56.080Z,77169.97
2022-11-13T02:56:23.350Z,77184.34
2022-11-13T02:58:50.586Z,77172.03
2022-11-13T03:01:17.837Z,77163.81
2022-11-13T03:03:57.549Z,77155.56
2022-11-13T03:06:25.349Z,77172.03
2022-11-13T03:08:52.568Z,77163.81
2022-11-13T03:11:20.078Z,77163.81
2022-11-13T03:13:50.147Z,77159.69
2022-11-13T03:16:17.409Z,77159.69
2022-11-13T03:18:44.498Z,77159.69
2022-11-13T03:21:12.970Z,77153.53
2022-11-13T03:23:40.231Z,77147.34
2022-11-13T03:26:09.460Z,77149.41
2022-11-13T03:28:36.672Z,77153.53
2022-11-13T03:31:04.077Z,77139.13
2022-11-13T03:33:31.195Z,77139.13
2022-11-13T03:35:58.738Z,77126.78
2022-11-13T03:38:26.191Z,77139.13
2022-11-13T03:40:53.657Z,77130.91
2022-11-13T03:43:20.745Z,77126.78
2022-11-13T03:45:47.830Z,77126.78
2022-11-13T03:48:15.296Z,77122.69
2022-11-13T03:50:45.566Z,77118.56
2022-11-13T03:53:12.856Z,77114.47
2022-11-13T03:55:40.080Z,77106.22
2022-11-13T03:58:07.126Z,77102.13
2022-11-13T04:00:34.246Z,77116.50
2022-11-13T04:03:03.326Z,77114.47
2022-11-13T04:05:31.167Z,77106.22
2022-11-13T04:07:58.194Z,77102.13
2022-11-13T04:10:25.756Z,77118.56
2022-11-13T04:12:53.116Z,77114.47
2022-11-13T04:15:20.114Z,77118.56
2022-11-13T04:17:49.264Z,77120.63
2022-11-13T04:20:16.485Z,77122.69
2022-11-13T04:22:43.618Z,77124.72
2022-11-13T04:25:10.635Z,77114.47
2022-11-13T04:27:37.805Z,77110.34
2022-11-13T04:30:05.429Z,77110.34
2022-11-13T04:32:32.767Z,77114.47
2022-11-13T04:35:00.628Z,77112.41
2022-11-13T04:37:27.692Z,77114.47
2022-11-13T04:39:54.919Z,77110.34
2022-11-13T04:42:40.969Z,77114.47
2022-11-13T04:45:08.269Z,77118.56
2022-11-13T04:47:35.763Z,77118.56
2022-11-13T04:50:03.757Z,77120.63
2022-11-13T04:52:30.894Z,77122.69
2022-11-13T04:54:57.922Z,77130.91
2022-11-13T04:57:25.150Z,77112.41
2022-11-13T04:59:52.424Z,77110.34
2022-11-13T05:02:19.684Z,77114.47
2022-11-13T05:04:46.927Z,77120.63
2022-11-13T05:07:14.377Z,77114.47
2022-11-13T05:09:41.459Z,77118.56
2022-11-13T05:12:13.285Z,77114.47
2022-11-13T05:14:40.529Z,77132.97
2022-11-13T05:17:09.035Z,77128.84
2022-11-13T05:19:37.412Z,77122.69
2022-11-13T05:22:04.691Z,77114.47
2022-11-13T05:24:31.936Z,77120.63
2022-11-13T05:26:59.020Z,77126.78
2022-11-13T05:29:26.043Z,77122.69
2022-11-13T05:31:53.227Z,77110.34
2022-11-13T05:34:20.275Z,77126.78
2022-11-13T05:36:47.759Z,77124.72
2022-11-13T05:39:14.810Z,77108.28
2022-11-13T05:41:42.157Z,77102.13
2022-11-13T05:44:09.641Z,77106.22
2022-11-13T05:46:36.694Z,77106.22
2022-11-13T05:49:04.264Z,77098.00
2022-11-13T05:51:32.560Z,77085.66
2022-11-13T05:53:59.984Z,77089.78
2022-11-13T05:56:27.972Z,77093.91
2022-11-13T05:58:55.142Z,77081.56
2022-11-13T06:01:24.000Z,77081.56
2022-11-13T06:03:51.376Z,77077.44
2022-11-13T06:06:19.288Z,77081.56
2022-11-13T06:08:46.560Z,77085.66
2022-11-13T06:11:14.533Z,77056.88
2022-11-13T06:13:41.592Z,77058.94
2022-11-13T06:16:13.616Z,77058.94
2022-11-13T06:18:40.865Z,77065.13
2022-11-13T06:21:09.188Z,77061.00
2022-11-13T06:23:36.815Z,77052.78
2022-11-13T06:26:05.080Z,77048.66
2022-11-13T06:28:32.492Z,77056.88
2022-11-13T06:31:03.908Z,77052.78
2022-11-13T06:33:31.075Z,77028.09
2022-11-13T06:35:58.217Z,77032.22
2022-11-13T06:38:25.474Z,77042.50
2022-11-13T06:40:52.664Z,77036.34
2022-11-13T06:43:19.747Z,77036.34
2022-11-13T06:45:46.812Z,77028.09
2022-11-13T06:48:13.859Z,77034.28
2022-11-13T06:50:45.692Z,77015.78
2022-11-13T06:53:15.416Z,77011.66
2022-11-13T06:55:44.684Z,76999.31
2022-11-13T06:58:12.005Z,77015.78
2022-11-13T07:00:40.225Z,77003.44
2022-11-13T07:03:11.127Z,76995.22
2022-11-13T07:05:38.196Z,76991.09
2022-11-13T07:08:05.694Z,76978.75
2022-11-13T07:10:32.942Z,76991.09
2022-11-13T07:13:00.445Z,76991.09
2022-11-13T07:15:27.605Z,76974.66
2022-11-13T07:17:55.603Z,76968.47
2022-11-13T07:20:22.707Z,76970.53
2022-11-13T07:22:50.810Z,76970.53
2022-11-13T07:25:17.892Z,76949.97
2022-11-13T07:27:45.371Z,76952.03
2022-11-13T07:30:12.684Z,76978.75
2022-11-13T07:32:39.737Z,76987.00
2022-11-13T07:35:06.980Z,76966.44
2022-11-13T07:37:34.761Z,76976.72
2022-11-13T07:40:01.868Z,76978.75
2022-11-13T07:42:29.230Z,76970.53
2022-11-13T07:44:56.516Z,76962.31
2022-11-13T07:47:23.824Z,76966.44
2022-11-13T07:49:51.124Z,76970.53
2022-11-13T07:52:18.158Z,76964.38
2022-11-13T07:54:45.195Z,76949.97
2022-11-13T07:57:13.110Z,76958.19
2022-11-13T07:59:40.662Z,76958.19
2022-11-13T08:02:09.325Z,76943.81
2022-11-13T08:04:37.301Z,76956.16
2022-11-13T08:07:05.295Z,76941.75
2022-11-13T08:09:33.122Z,76939.69
2022-11-13T08:12:02.767Z,76937.66
2022-11-13T08:14:29.997Z,76908.88
2022-11-13T08:16:57.029Z,76906.81
2022-11-13T08:19:24.279Z,76923.25
2022-11-13T08:21:51.345Z,76912.97
2022-11-13T08:24:18.604Z,76908.88
2022-11-13T08:26:45.688Z,76900.63
2022-11-13T08:29:13.251Z,76904.75
2022-11-13T08:31:40.313Z,76875.97
2022-11-13T08:34:07.615Z,76847.19
2022-11-13T08:36:34.655Z,76859.53
2022-11-13T08:39:01.885Z,76855.41
2022-11-13T08:41:29.437Z,76806.06
2022-11-13T08:43:56.845Z,76806.06
2022-11-13T08:46:23.889Z,76799.91
2022-11-13T08:48:50.922Z,76814.28
2022-11-13T08:51:18.423Z,76806.06
2022-11-13T08:53:45.553Z,76785.50
2022-11-13T08:56:12.605Z,76764.97
2022-11-13T08:58:40.183Z,76736.16
2022-11-13T09:01:07.306Z,76719.72
2022-11-13T09:03:36.269Z,76730.00
2022-11-13T09:06:06.964Z,76727.94
2022-11-13T09:08:34.453Z,76684.78
2022-11-13T09:11:05.208Z,76510.03
2022-11-13T09:13:33.378Z,76436.03
2022-11-13T09:16:00.874Z,76460.72
2022-11-13T09:18:29.802Z,76460.72
2022-11-13T09:21:00.825Z,76423.72
2022-11-13T09:23:28.806Z,76347.66
2022-11-13T09:26:00.444Z,76417.53
2022-11-13T09:28:27.905Z,76413.44
2022-11-13T09:30:55.186Z,76423.72
2022-11-13T09:33:22.332Z,76349.72
2022-11-13T09:35:51.211Z,76246.94
2022-11-13T09:38:18.339Z,76168.84
2022-11-13T09:40:56.041Z,76300.38
2022-11-13T09:43:35.560Z,76479.22
2022-11-13T09:46:11.751Z,76522.38
2022-11-13T09:48:40.296Z,76542.94
2022-11-13T09:51:27.626Z,76508.00
2022-11-13T09:53:54.663Z,76419.59
2022-11-13T09:56:29.256Z,76329.16
2022-11-13T09:59:16.853Z,76337.38
2022-11-13T10:01:49.247Z,76193.50
2022-11-13T10:04:16.276Z,76135.94
2022-11-13T10:06:43.410Z,76281.88
2022-11-13T10:09:13.232Z,76224.31
2022-11-13T10:11:49.207Z,75971.50
2022-11-13T10:14:20.043Z,75971.50
2022-11-13T10:16:52.772Z,75983.84
2022-11-13T10:19:22.993Z,76008.50
2022-11-13T10:21:54.833Z,76066.06
2022-11-13T10:24:26.455Z,75953.00
2022-11-13T10:26:55.313Z,76086.63
2022-11-13T10:29:22.630Z,76172.94
2022-11-13T10:31:50.854Z,76070.16
2022-11-13T10:34:18.304Z,75930.41
2022-11-13T10:36:48.694Z,75975.63
2022-11-13T10:39:16.086Z,75987.97
2022-11-13T10:41:47.923Z,76123.63
2022-11-13T10:44:33.491Z,76094.84
2022-11-13T10:47:36.118Z,76107.16
2022-11-13T10:50:12.666Z,76086.63
2022-11-13T10:52:47.213Z,76094.84
2022-11-13T10:55:28.058Z,75975.63
2022-11-13T10:57:56.769Z,75938.63
2022-11-13T11:00:31.021Z,75864.63
2022-11-13T11:02:58.237Z,75922.19
2022-11-13T11:05:26.095Z,75876.97
2022-11-13T11:07:54.946Z,75909.84
2022-11-13T11:10:31.545Z,75926.28
2022-11-13T11:13:10.909Z,76008.50
2022-11-13T11:15:49.127Z,76041.41
2022-11-13T11:18:24.696Z,76053.72
2022-11-13T11:20:53.302Z,76066.06
2022-11-13T11:23:23.802Z,76121.56
2022-11-13T11:25:58.564Z,76119.50
2022-11-13T11:28:30.560Z,76133.88
2022-11-13T11:31:00.145Z,76074.28
2022-11-13T11:33:42.832Z,76111.28
2022-11-13T11:36:28.901Z,76076.34
2022-11-13T11:38:59.564Z,76020.84
2022-11-13T11:41:29.577Z,76033.19
2022-11-13T11:44:02.320Z,75975.63
2022-11-13T11:46:31.094Z,75897.53
2022-11-13T11:49:01.220Z,75897.53
2022-11-13T11:51:32.463Z,75864.63
2022-11-13T11:54:05.577Z,75839.97
2022-11-13T11:56:36.365Z,75809.16
2022-11-13T11:59:09.086Z,75872.84
2022-11-13T12:01:39.352Z,75938.63
2022-11-13T12:04:13.386Z,75899.56
2022-11-13T12:06:59.406Z,76004.41
2022-11-13T12:09:28.457Z,76119.50
2022-11-13T12:11:58.558Z,76115.38
2022-11-13T12:14:25.798Z,76131.84
2022-11-13T12:17:15.967Z,76185.28
2022-11-13T12:19:59.611Z,76218.16
2022-11-13T12:22:46.927Z,76271.59
2022-11-13T12:25:23.704Z,76318.88
2022-11-13T12:27:58.733Z,76292.16
2022-11-13T12:30:46.064Z,76320.94
2022-11-13T12:33:16.144Z,76345.59
2022-11-13T12:35:45.061Z,76378.50
2022-11-13T12:38:15.122Z,76417.53
2022-11-13T12:40:54.694Z,76427.81
2022-11-13T12:43:40.712Z,76448.38
2022-11-13T12:46:08.694Z,76436.03
2022-11-13T12:48:36.909Z,76444.28
2022-11-13T12:51:05.244Z,76510.03
2022-11-13T12:53:43.579Z,76493.59
2022-11-13T12:56:15.397Z,76497.72
2022-11-13T12:59:15.480Z,76493.59
2022-11-13T13:01:43.548Z,76522.38
2022-11-13T13:04:25.944Z,76520.31
2022-11-13T13:07:05.130Z,76487.44
2022-11-13T13:09:51.107Z,76518.28
2022-11-13T13:12:24.331Z,76522.38
2022-11-13T13:15:00.761Z,76475.09
2022-11-13T13:17:28.280Z,76493.59
2022-11-13T13:20:04.092Z,76534.72
2022-11-13T13:22:32.355Z,76569.66
2022-11-13T13:25:19.625Z,76596.38
2022-11-13T13:27:46.697Z,76596.38
2022-11-13T13:30:17.308Z,76627.22
2022-11-13T13:32:48.112Z,76629.28
2022-11-13T13:35:15.814Z,76629.28
2022-11-13T13:37:43.344Z,76649.84
2022-11-13T13:40:32.096Z,76658.06
2022-11-13T13:43:17.487Z,76656.00
2022-11-13T13:45:54.143Z,76686.84
2022-11-13T13:48:21.897Z,76707.41
2022-11-13T13:50:49.303Z,76695.06
2022-11-13T13:53:18.516Z,76703.28
2022-11-13T13:55:48.368Z,76707.41
2022-11-13T13:58:15.955Z,76732.06
2022-11-13T14:01:05.153Z,76734.13
2022-11-13T14:03:30.330Z,76748.50
2022-11-13T14:06:08.139Z,76764.97
2022-11-13T14:08:35.454Z,76756.72
2022-11-13T14:11:03.822Z,76754.69
2022-11-13T14:13:30.946Z,76748.50
2022-11-13T14:16:05.264Z,76781.41
2022-11-13T14:18:32.900Z,76781.41
2022-11-13T14:21:22.216Z,76781.41
2022-11-13T14:23:50.101Z,76797.84
2022-11-13T14:26:17.138Z,76806.06
2022-11-13T14:28:53.637Z,76797.84
2022-11-13T14:31:24.736Z,76797.84
2022-11-13T14:33:51.900Z,76818.41
2022-11-13T14:36:25.013Z,76814.28
2022-11-13T14:38:52.610Z,76810.19
2022-11-13T14:41:24.114Z,76801.97
2022-11-13T14:43:51.528Z,76826.63
2022-11-13T14:46:28.236Z,76834.84
2022-11-13T14:48:55.625Z,76822.50
2022-11-13T14:51:32.394Z,76826.63
2022-11-13T14:54:02.946Z,76834.84
2022-11-13T14:56:34.509Z,76847.19
2022-11-13T14:59:19.603Z,76834.84
2022-11-13T15:01:57.301Z,76834.84
2022-11-13T15:04:24.445Z,76855.41
2022-11-13T15:06:55.887Z,76855.41
2022-11-13T15:09:23.341Z,76855.41
2022-11-13T15:11:50.926Z,76859.53
2022-11-13T15:14:19.292Z,76875.97
2022-11-13T15:17:07.760Z,76865.69
2022-11-13T15:19:35.320Z,76863.63
2022-11-13T15:24:50.923Z,76871.84
2022-11-13T15:27:18.291Z,76869.81
2022-11-13T15:29:45.880Z,76863.63
2022-11-13T15:32:13.518Z,76892.41
2022-11-13T15:34:42.311Z,76884.19
2022-11-13T15:37:13.237Z,76894.47
2022-11-13T15:39:41.299Z,76890.34
2022-11-13T15:42:12.007Z,76912.97
2022-11-13T15:44:40.765Z,76912.97
2022-11-13T15:47:15.968Z,76908.88
2022-11-13T15:49:56.644Z,76898.59
2022-11-13T15:52:32.333Z,76921.19
2022-11-13T15:54:59.713Z,76919.16
2022-11-13T15:57:27.672Z,76912.97
2022-11-13T15:59:55.389Z,76900.63
2022-11-13T16:02:22.899Z,76906.81
2022-11-13T16:04:56.405Z,76929.41
2022-11-13T16:07:27.809Z,76933.53
2022-11-13T16:09:54.931Z,76937.66
2022-11-13T16:12:22.235Z,76929.41
2022-11-13T16:14:49.944Z,76937.66
2022-11-13T16:17:21.033Z,76945.88
2022-11-13T16:19:48.766Z,76937.66
2022-11-13T16:22:20.012Z,76943.81
2022-11-13T16:24:49.207Z,76947.94
2022-11-13T16:27:19.584Z,76945.88
2022-11-13T16:29:46.637Z,76962.31
2022-11-13T16:32:15.691Z,76964.38
2022-11-13T16:34:43.654Z,76970.53
2022-11-13T16:37:17.832Z,76972.59
2022-11-13T16:39:45.036Z,76966.44
2022-11-13T16:42:12.539Z,76970.53
2022-11-13T16:44:41.756Z,76962.31
2022-11-13T16:47:20.200Z,76974.66
2022-11-13T16:49:47.271Z,76960.25
2022-11-13T16:52:14.495Z,76974.66
2022-11-13T16:54:41.517Z,76978.75
2022-11-13T16:57:12.177Z,76966.44
2022-11-13T16:59:39.405Z,76978.75
2022-11-13T17:02:13.720Z,76974.66
2022-11-13T17:04:40.926Z,76989.03
2022-11-13T17:07:10.298Z,76999.31
2022-11-13T17:09:41.423Z,76999.31
2022-11-13T17:12:09.342Z,76995.22
2022-11-13T17:14:38.156Z,76995.22
2022-11-13T17:17:06.066Z,77011.66
2022-11-13T17:19:33.194Z,77017.81
2022-11-13T17:22:00.510Z,77007.53
2022-11-13T17:24:27.913Z,77007.53
2022-11-13T17:26:55.096Z,77015.78
2022-11-13T17:29:22.298Z,77019.88
2022-11-13T17:31:49.399Z,77026.03
2022-11-13T17:34:16.467Z,77009.59
2022-11-13T17:36:43.593Z,77017.81
2022-11-13T17:39:10.680Z,77032.22
2022-11-13T17:41:38.268Z,77038.38
2022-11-13T17:44:05.592Z,77032.22
2022-11-13T17:46:32.662Z,77019.88
2022-11-13T17:48:59.715Z,77028.09
2022-11-13T17:51:26.879Z,77024.00
2022-11-13T17:53:56.060Z,77015.78
2022-11-13T17:56:23.135Z,77024.00
2022-11-13T17:58:50.240Z,77026.03
2022-11-13T18:01:19.555Z,77038.38
2022-11-13T18:03:46.724Z,77032.22
2022-11-13T18:06:18.480Z,77040.44
2022-11-13T18:08:46.857Z,77040.44
2022-11-13T18:11:15.617Z,77048.66
2022-11-13T18:13:43.340Z,77032.22
2022-11-13T18:16:11.168Z,77028.09
2022-11-13T18:18:38.338Z,77019.88
2022-11-13T18:21:23.621Z,77024.00
2022-11-13T18:24:01.336Z,77024.00
2022-11-13T18:26:29.202Z,77005.50
2022-11-13T18:28:56.244Z,76991.09
2022-11-13T18:31:23.615Z,76999.31
2022-11-13T18:33:50.852Z,77003.44
2022-11-13T18:36:18.487Z,76993.16
2022-11-13T18:38:45.658Z,77003.44
2022-11-13T18:41:14.241Z,77013.72
2022-11-13T18:43:45.274Z,77026.03
2022-11-13T18:46:12.902Z,77026.03
2022-11-13T18:48:40.586Z,77024.00
2022-11-13T18:51:14.968Z,77028.09
2022-11-13T18:53:43.668Z,77015.78
2022-11-13T18:56:14.985Z,77005.50
2022-11-13T18:58:42.439Z,77009.59
2022-11-13T19:01:18.861Z,77011.66
2022-11-13T19:04:08.176Z,76999.31
2022-11-13T19:06:36.504Z,77007.53
2022-11-13T19:09:07.837Z,77011.66
2022-11-13T19:11:35.341Z,77005.50
2022-11-13T19:14:02.373Z,77013.72
2022-11-13T19:16:33.102Z,77019.88
2022-11-13T19:19:03.594Z,77032.22
2022-11-13T19:21:31.198Z,77034.28
2022-11-13T19:23:58.619Z,77026.03
2022-11-13T19:26:26.181Z,77021.94
2022-11-13T19:28:53.399Z,77040.44
2022-11-13T19:31:22.013Z,77050.72
2022-11-13T19:33:55.658Z,77052.78
2022-11-13T19:36:24.843Z,77052.78
2022-11-13T19:38:52.279Z,77052.78
2022-11-13T19:41:19.431Z,77050.72
2022-11-13T19:43:46.464Z,77052.78
2022-11-13T19:46:13.807Z,77056.88
2022-11-13T19:48:41.889Z,77052.78
2022-11-13T19:51:12.644Z,77048.66
2022-11-13T19:53:40.195Z,77065.13
2022-11-13T19:56:07.408Z,77061.00
2022-11-13T19:58:34.655Z,77052.78
2022-11-13T20:01:07.800Z,77052.78
2022-11-13T20:03:35.029Z,77056.88
2022-11-13T20:06:02.100Z,77067.16
2022-11-13T20:08:29.934Z,77048.66
2022-11-13T20:11:00.981Z,77067.16
2022-11-13T20:13:28.074Z,77075.38
2022-11-13T20:15:55.195Z,77069.22
2022-11-13T20:18:22.265Z,77065.13
2022-11-13T20:20:54.693Z,77073.34
2022-11-13T20:23:22.139Z,77085.66
2022-11-13T20:25:56.545Z,77085.66
2022-11-13T20:28:23.826Z,77085.66
2022-11-13T20:30:51.039Z,77091.84
2022-11-13T20:33:22.379Z,77085.66
2022-11-13T20:35:54.003Z,77098.00
2022-11-13T20:38:21.056Z,77095.94
2022-11-13T20:40:48.092Z,77077.44
2022-11-13T20:43:15.125Z,77081.56
2022-11-13T20:45:43.601Z,77093.91
2022-11-13T20:48:10.659Z,77089.78
2022-11-13T20:50:37.786Z,77085.66
2022-11-13T20:53:05.190Z,77091.84
2022-11-13T20:55:33.378Z,77102.13
2022-11-13T20:58:00.815Z,77106.22
2022-11-13T21:00:28.158Z,77110.34
2022-11-13T21:02:55.257Z,77116.50
2022-11-13T21:05:22.432Z,77124.72
2022-11-13T21:07:49.883Z,77130.91
2022-11-13T21:10:16.975Z,77126.78
2022-11-13T21:12:44.382Z,77122.69
2022-11-13T21:15:11.777Z,77126.78
2022-11-13T21:17:38.967Z,77118.56
2022-11-13T21:20:06.315Z,77126.78
2022-11-13T21:22:33.970Z,77130.91
2022-11-13T21:25:01.041Z,77122.69
2022-11-13T21:27:28.278Z,77122.69
2022-11-13T21:29:57.255Z,77135.03
2022-11-13T21:32:24.378Z,77149.41
2022-11-13T21:34:53.999Z,77151.47
2022-11-13T21:37:21.456Z,77130.91
2022-11-13T21:39:48.717Z,77124.72
2022-11-13T21:42:15.736Z,77143.25
2022-11-13T21:44:43.093Z,77159.69
2022-11-13T21:47:13.126Z,77139.13
2022-11-13T21:49:41.007Z,77135.03
2022-11-13T21:52:08.186Z,77147.34
2022-11-13T21:54:36.696Z,77157.63
2022-11-13T21:57:03.871Z,77159.69
2022-11-13T21:59:31.671Z,77161.75
2022-11-13T22:01:59.129Z,77141.19
2022-11-13T22:04:26.215Z,77159.69
2022-11-13T22:06:53.373Z,77165.84
2022-11-13T22:09:24.326Z,77149.41
2022-11-13T22:11:51.405Z,77132.97
2022-11-13T22:14:19.644Z,77151.47
2022-11-13T22:16:48.505Z,77163.81
2022-11-13T22:19:16.274Z,77153.53
2022-11-13T22:21:44.662Z,77153.53
2022-11-13T22:24:11.945Z,77163.81
2022-11-13T22:26:39.911Z,77176.13
2022-11-13T22:29:07.217Z,77192.59
2022-11-13T22:31:34.866Z,77184.34
2022-11-13T22:34:01.976Z,77188.47
2022-11-13T22:36:30.648Z,77159.69
2022-11-13T22:38:57.947Z,77163.81
2022-11-13T22:41:29.384Z,77192.59
2022-11-13T22:44:03.782Z,77196.69
2022-11-13T22:46:31.567Z,77176.13
2022-11-13T22:49:00.156Z,77163.81
2022-11-13T22:51:38.418Z,77204.91
2022-11-13T22:54:06.318Z,77229.59
2022-11-13T22:56:34.541Z,77223.44
2022-11-13T22:59:02.418Z,77213.16
2022-11-13T23:01:30.248Z,77231.66
2022-11-13T23:03:57.716Z,77254.25
2022-11-13T23:06:26.087Z,77246.03
2022-11-13T23:08:53.339Z,77250.16
2022-11-13T23:11:21.257Z,77254.25
2022-11-13T23:13:49.077Z,77283.06
2022-11-13T23:16:16.266Z,77278.94
2022-11-13T23:18:43.660Z,77278.94
2022-11-13T23:21:11.204Z,77287.16
2022-11-13T23:23:39.390Z,77301.56
2022-11-13T23:26:07.143Z,77320.06
2022-11-13T23:28:34.785Z,77315.94
2022-11-13T23:31:02.444Z,77305.66
2022-11-13T23:33:30.056Z,77311.84
2022-11-13T23:35:58.471Z,77328.28
2022-11-13T23:38:25.612Z,77338.56
2022-11-13T23:40:56.565Z,77348.84
2022-11-13T23:43:36.509Z,77355.00
2022-11-13T23:46:10.986Z,77352.97
2022-11-13T23:48:40.017Z,77357.06
2022-11-13T23:51:07.418Z,77361.19
2022-11-13T23:53:34.524Z,77369.41
2022-11-13T23:56:02.109Z,77369.41
2022-11-13T23:58:30.471Z,77357.06
